sensor_id;sensor_type;location;lat;lon;timestamp;pressure;altitude;pressure_sealevel;temperature;humidity
68329;BME280;55182;56.864;60.554;2023-04-09T00:00:35;76892.44;;;-143.60;37.82
68329;BME280;55182;56.864;60.554;2023-04-09T00:03:01;76886.41;;;-143.60;37.78
68329;BME280;55182;56.864;60.554;2023-04-09T00:05:27;76882.38;;;-143.60;37.80
68329;BME280;55182;56.864;60.554;2023-04-09T00:07:52;76886.41;;;-143.60;37.92
68329;BME280;55182;56.864;60.554;2023-04-09T00:10:18;76890.41;;;-143.60;38.17
68329;BME280;55182;56.864;60.554;2023-04-09T00:12:44;76894.44;;;-143.60;38.00
68329;BME280;55182;56.864;60.554;2023-04-09T00:15:09;76894.44;;;-143.60;38.00
68329;BME280;55182;56.864;60.554;2023-04-09T00:17:35;76894.44;;;-143.60;38.13
68329;BME280;55182;56.864;60.554;2023-04-09T00:20:00;76894.44;;;-143.60;37.87
68329;BME280;55182;56.864;60.554;2023-04-09T00:22:26;76890.41;;;-143.60;37.93
68329;BME280;55182;56.864;60.554;2023-04-09T00:24:52;76888.41;;;-143.60;38.65
68329;BME280;55182;56.864;60.554;2023-04-09T00:27:17;76896.44;;;-143.60;38.08
68329;BME280;55182;56.864;60.554;2023-04-09T00:29:43;76900.47;;;-143.60;38.13
68329;BME280;55182;56.864;60.554;2023-04-09T00:32:09;76914.53;;;-143.60;38.09
68329;BME280;55182;56.864;60.554;2023-04-09T00:34:34;76914.53;;;-143.60;37.94
68329;BME280;55182;56.864;60.554;2023-04-09T00:37:00;76918.56;;;-143.60;37.99
68329;BME280;55182;56.864;60.554;2023-04-09T00:39:26;76922.59;;;-143.60;37.89
68329;BME280;55182;56.864;60.554;2023-04-09T00:41:55;76924.59;;;-143.60;37.84
68329;BME280;55182;56.864;60.554;2023-04-09T00:44:20;76934.63;;;-143.60;38.08
68329;BME280;55182;56.864;60.554;2023-04-09T00:46:46;76940.66;;;-143.60;38.40
68329;BME280;55182;56.864;60.554;2023-04-09T00:49:11;76946.69;;;-143.60;38.21
68329;BME280;55182;56.864;60.554;2023-04-09T00:51:37;76946.69;;;-143.60;38.30
68329;BME280;55182;56.864;60.554;2023-04-09T00:54:02;76952.72;;;-143.60;38.29
68329;BME280;55182;56.864;60.554;2023-04-09T00:56:29;76948.72;;;-143.60;38.44
68329;BME280;55182;56.864;60.554;2023-04-09T00:58:55;76954.75;;;-143.60;38.54
68329;BME280;55182;56.864;60.554;2023-04-09T01:01:20;76958.75;;;-143.60;38.41
68329;BME280;55182;56.864;60.554;2023-04-09T01:03:46;76962.78;;;-143.60;38.57
68329;BME280;55182;56.864;60.554;2023-04-09T01:06:30;76962.78;;;-143.60;38.85
68329;BME280;55182;56.864;60.554;2023-04-09T01:09:10;76970.81;;;-143.60;39.04
68329;BME280;55182;56.864;60.554;2023-04-09T01:14:18;76978.84;;;-143.60;39.11
68329;BME280;55182;56.864;60.554;2023-04-09T01:16:46;76980.88;;;-143.60;38.83
68329;BME280;55182;56.864;60.554;2023-04-09T01:21:48;76980.88;;;-143.60;39.16
68329;BME280;55182;56.864;60.554;2023-04-09T01:27:11;76990.91;;;-143.60;39.05
68329;BME280;55182;56.864;60.554;2023-04-09T01:29:50;76994.94;;;-143.60;39.09
68329;BME280;55182;56.864;60.554;2023-04-09T01:32:17;76990.91;;;-143.60;39.38
68329;BME280;55182;56.864;60.554;2023-04-09T01:34:46;76992.94;;;-143.60;39.25
68329;BME280;55182;56.864;60.554;2023-04-09T01:37:12;76982.88;;;-143.60;38.97
68329;BME280;55182;56.864;60.554;2023-04-09T01:39:39;76982.88;;;-143.60;39.51
68329;BME280;55182;56.864;60.554;2023-04-09T01:42:05;76986.91;;;-143.60;38.93
68329;BME280;55182;56.864;60.554;2023-04-09T01:44:31;76978.84;;;-143.60;39.11
68329;BME280;55182;56.864;60.554;2023-04-09T01:46:57;76970.81;;;-143.60;38.62
68329;BME280;55182;56.864;60.554;2023-04-09T01:49:23;76964.78;;;-143.60;38.65
68329;BME280;55182;56.864;60.554;2023-04-09T01:51:48;76966.81;;;-143.60;38.90
68329;BME280;55182;56.864;60.554;2023-04-09T01:54:14;76960.78;;;-143.60;38.89
68329;BME280;55182;56.864;60.554;2023-04-09T01:56:41;76964.78;;;-143.60;38.81
68329;BME280;55182;56.864;60.554;2023-04-09T01:59:07;76966.81;;;-143.60;38.90
68329;BME280;55182;56.864;60.554;2023-04-09T02:01:34;76966.81;;;-143.60;38.85
68329;BME280;55182;56.864;60.554;2023-04-09T02:04:03;76968.81;;;-143.60;38.90
68329;BME280;55182;56.864;60.554;2023-04-09T02:06:51;76962.78;;;-143.60;38.90
68329;BME280;55182;56.864;60.554;2023-04-09T02:09:17;76960.78;;;-143.60;39.07
68329;BME280;55182;56.864;60.554;2023-04-09T02:11:45;76962.78;;;-143.60;39.19
68329;BME280;55182;56.864;60.554;2023-04-09T02:14:11;76958.75;;;-143.60;38.89
68329;BME280;55182;56.864;60.554;2023-04-09T02:16:37;76950.72;;;-143.60;38.59
68329;BME280;55182;56.864;60.554;2023-04-09T02:19:03;76940.66;;;-143.60;38.80
68329;BME280;55182;56.864;60.554;2023-04-09T02:21:28;76938.66;;;-143.60;38.66
68329;BME280;55182;56.864;60.554;2023-04-09T02:23:54;76936.66;;;-143.60;38.65
68329;BME280;55182;56.864;60.554;2023-04-09T02:26:20;76934.63;;;-143.60;38.89
68329;BME280;55182;56.864;60.554;2023-04-09T02:28:46;76934.63;;;-143.60;39.17
68329;BME280;55182;56.864;60.554;2023-04-09T02:31:12;76934.63;;;-143.60;39.05
68329;BME280;55182;56.864;60.554;2023-04-09T02:33:37;76932.63;;;-143.60;38.85
68329;BME280;55182;56.864;60.554;2023-04-09T02:36:03;76920.56;;;-143.60;38.89
68329;BME280;55182;56.864;60.554;2023-04-09T02:38:28;76914.53;;;-143.60;38.24
68329;BME280;55182;56.864;60.554;2023-04-09T02:40:54;76900.47;;;-143.60;38.20
68329;BME280;55182;56.864;60.554;2023-04-09T02:43:19;76890.41;;;-143.60;38.16
68329;BME280;55182;56.864;60.554;2023-04-09T02:45:45;76878.38;;;-143.60;38.26
68329;BME280;55182;56.864;60.554;2023-04-09T02:48:11;76870.31;;;-143.60;37.95
68329;BME280;55182;56.864;60.554;2023-04-09T02:50:36;76868.31;;;-143.60;38.29
68329;BME280;55182;56.864;60.554;2023-04-09T02:53:02;76868.31;;;-143.60;37.70
68329;BME280;55182;56.864;60.554;2023-04-09T02:55:27;76862.28;;;-143.60;37.72
68329;BME280;55182;56.864;60.554;2023-04-09T02:57:53;76854.25;;;-143.60;37.38
68329;BME280;55182;56.864;60.554;2023-04-09T03:00:18;76844.19;;;-143.60;37.46
68329;BME280;55182;56.864;60.554;2023-04-09T03:02:44;76842.19;;;-143.60;37.18
68329;BME280;55182;56.864;60.554;2023-04-09T03:05:09;76838.16;;;-143.60;37.24
68329;BME280;55182;56.864;60.554;2023-04-09T03:07:35;76830.13;;;-143.60;37.40
68329;BME280;55182;56.864;60.554;2023-04-09T03:10:01;76822.09;;;-143.60;37.30
68329;BME280;55182;56.864;60.554;2023-04-09T03:12:26;76810.03;;;-143.60;37.80
68329;BME280;55182;56.864;60.554;2023-04-09T03:14:52;76814.06;;;-143.60;37.63
68329;BME280;55182;56.864;60.554;2023-04-09T03:17:18;76808.03;;;-143.60;37.65
68329;BME280;55182;56.864;60.554;2023-04-09T03:19:44;76802.00;;;-143.60;37.78
68329;BME280;55182;56.864;60.554;2023-04-09T03:22:10;76802.00;;;-143.60;38.48
68329;BME280;55182;56.864;60.554;2023-04-09T03:24:35;76797.97;;;-143.60;37.80
68329;BME280;55182;56.864;60.554;2023-04-09T03:27:04;76785.91;;;-143.60;37.56
68329;BME280;55182;56.864;60.554;2023-04-09T03:29:31;76771.84;;;-143.60;37.44
68329;BME280;55182;56.864;60.554;2023-04-09T03:31:57;76761.78;;;-143.60;37.26
68329;BME280;55182;56.864;60.554;2023-04-09T03:34:22;76759.78;;;-143.60;37.49
68329;BME280;55182;56.864;60.554;2023-04-09T03:36:51;76753.75;;;-143.60;37.22
68329;BME280;55182;56.864;60.554;2023-04-09T03:39:21;76739.69;;;-143.60;37.27
68329;BME280;55182;56.864;60.554;2023-04-09T03:41:47;76721.59;;;-143.60;37.62
68329;BME280;55182;56.864;60.554;2023-04-09T03:44:14;76721.59;;;-143.60;36.92
68329;BME280;55182;56.864;60.554;2023-04-09T03:47:06;76697.47;;;-143.60;36.75
68329;BME280;55182;56.864;60.554;2023-04-09T03:49:36;76691.44;;;-143.60;36.75
68329;BME280;55182;56.864;60.554;2023-04-09T03:52:21;76673.38;;;-143.60;36.67
68329;BME280;55182;56.864;60.554;2023-04-09T03:54:56;76661.31;;;-143.60;36.53
68329;BME280;55182;56.864;60.554;2023-04-09T03:57:23;76641.22;;;-143.60;36.06
68329;BME280;55182;56.864;60.554;2023-04-09T03:59:51;76629.16;;;-143.60;36.34
68329;BME280;55182;56.864;60.554;2023-04-09T04:02:19;76615.09;;;-143.60;36.21
68329;BME280;55182;56.864;60.554;2023-04-09T04:04:53;76603.03;;;-143.60;36.58
68329;BME280;55182;56.864;60.554;2023-04-09T04:07:20;76605.03;;;-143.60;36.32
68329;BME280;55182;56.864;60.554;2023-04-09T04:09:50;76588.97;;;-143.60;36.43
68329;BME280;55182;56.864;60.554;2023-04-09T04:12:17;76574.88;;;-143.60;36.73
68329;BME280;55182;56.864;60.554;2023-04-09T04:14:59;76572.88;;;-143.60;36.16
68329;BME280;55182;56.864;60.554;2023-04-09T04:17:34;76544.75;;;-143.60;36.24
68329;BME280;55182;56.864;60.554;2023-04-09T04:20:02;76528.66;;;-143.60;36.07
68329;BME280;55182;56.864;60.554;2023-04-09T04:22:32;76512.59;;;-143.60;35.88
68329;BME280;55182;56.864;60.554;2023-04-09T04:24:58;76500.53;;;-143.60;35.96
68329;BME280;55182;56.864;60.554;2023-04-09T04:27:24;76484.44;;;-143.60;35.53
68329;BME280;55182;56.864;60.554;2023-04-09T04:29:49;76468.38;;;-143.60;35.61
68329;BME280;55182;56.864;60.554;2023-04-09T04:32:26;76452.31;;;-143.60;35.40
68329;BME280;55182;56.864;60.554;2023-04-09T04:34:52;76428.19;;;-143.60;34.96
68329;BME280;55182;56.864;60.554;2023-04-09T04:37:23;76404.06;;;-143.60;34.73
68329;BME280;55182;56.864;60.554;2023-04-09T04:39:53;76383.97;;;-143.60;34.08
68329;BME280;55182;56.864;60.554;2023-04-09T04:42:19;76361.88;;;-143.60;33.95
68329;BME280;55182;56.864;60.554;2023-04-09T04:44:46;76339.75;;;-143.60;33.50
68329;BME280;55182;56.864;60.554;2023-04-09T04:47:26;76315.66;;;-143.60;33.47
68329;BME280;55182;56.864;60.554;2023-04-09T04:49:52;76295.56;;;-143.60;33.06
68329;BME280;55182;56.864;60.554;2023-04-09T04:52:19;76283.50;;;-143.60;33.29
68329;BME280;55182;56.864;60.554;2023-04-09T04:54:48;76267.41;;;-143.60;33.27
68329;BME280;55182;56.864;60.554;2023-04-09T04:57:19;76255.34;;;-143.60;33.09
68329;BME280;55182;56.864;60.554;2023-04-09T04:59:44;76239.28;;;-143.60;33.12
68329;BME280;55182;56.864;60.554;2023-04-09T05:02:12;76213.16;;;-143.60;32.87
68329;BME280;55182;56.864;60.554;2023-04-09T05:05:00;76205.13;;;-143.60;32.69
68329;BME280;55182;56.864;60.554;2023-04-09T05:07:33;76189.03;;;-143.60;32.64
68329;BME280;55182;56.864;60.554;2023-04-09T05:09:59;76170.97;;;-143.60;32.28
68329;BME280;55182;56.864;60.554;2023-04-09T05:12:32;76150.88;;;-143.60;32.09
68329;BME280;55182;56.864;60.554;2023-04-09T05:14:59;76138.81;;;-143.60;32.23
68329;BME280;55182;56.864;60.554;2023-04-09T05:17:24;76118.72;;;-143.60;31.93
68329;BME280;55182;56.864;60.554;2023-04-09T05:19:50;76106.66;;;-143.60;31.92
68329;BME280;55182;56.864;60.554;2023-04-09T05:22:17;76094.59;;;-143.60;32.15
68329;BME280;55182;56.864;60.554;2023-04-09T05:24:44;76090.59;;;-143.60;31.99
68329;BME280;55182;56.864;60.554;2023-04-09T05:27:10;76072.50;;;-143.60;31.74
68329;BME280;55182;56.864;60.554;2023-04-09T05:29:35;76048.38;;;-143.60;31.78
68329;BME280;55182;56.864;60.554;2023-04-09T05:32:02;76030.31;;;-143.60;31.74
68329;BME280;55182;56.864;60.554;2023-04-09T05:34:34;76010.19;;;-143.60;31.45
68329;BME280;55182;56.864;60.554;2023-04-09T05:36:59;75994.13;;;-143.60;31.34
68329;BME280;55182;56.864;60.554;2023-04-09T05:39:25;75972.03;;;-143.60;30.97
68329;BME280;55182;56.864;60.554;2023-04-09T05:41:51;75964.00;;;-143.60;31.50
68329;BME280;55182;56.864;60.554;2023-04-09T05:44:19;75949.91;;;-143.60;31.03
68329;BME280;55182;56.864;60.554;2023-04-09T05:46:45;75943.91;;;-143.60;30.98
68329;BME280;55182;56.864;60.554;2023-04-09T05:49:14;75921.78;;;-143.60;31.19
68329;BME280;55182;56.864;60.554;2023-04-09T05:51:42;75901.69;;;-143.60;31.07
68329;BME280;55182;56.864;60.554;2023-04-09T05:54:09;75891.66;;;-143.60;30.54
68329;BME280;55182;56.864;60.554;2023-04-09T05:56:36;75879.59;;;-143.60;30.18
68329;BME280;55182;56.864;60.554;2023-04-09T05:59:03;75849.44;;;-143.60;29.93
68329;BME280;55182;56.864;60.554;2023-04-09T06:01:28;75817.31;;;-143.60;29.96
68329;BME280;55182;56.864;60.554;2023-04-09T06:03:54;75791.19;;;-143.60;29.60
68329;BME280;55182;56.864;60.554;2023-04-09T06:06:19;75765.06;;;-143.60;29.28
68329;BME280;55182;56.864;60.554;2023-04-09T06:08:45;75751.00;;;-143.60;29.45
68329;BME280;55182;56.864;60.554;2023-04-09T06:11:10;75740.94;;;-143.60;29.24
68329;BME280;55182;56.864;60.554;2023-04-09T06:13:36;75718.84;;;-143.60;29.13
68329;BME280;55182;56.864;60.554;2023-04-09T06:16:05;75694.75;;;-143.60;29.12
68329;BME280;55182;56.864;60.554;2023-04-09T06:18:30;75690.72;;;-143.60;29.04
68329;BME280;55182;56.864;60.554;2023-04-09T06:21:06;75674.66;;;-143.60;28.81
68329;BME280;55182;56.864;60.554;2023-04-09T06:23:32;75666.59;;;-143.60;28.67
68329;BME280;55182;56.864;60.554;2023-04-09T06:25:58;75660.59;;;-143.60;28.91
68329;BME280;55182;56.864;60.554;2023-04-09T06:28:24;75644.50;;;-143.60;28.84
68329;BME280;55182;56.864;60.554;2023-04-09T06:30:50;75632.44;;;-143.60;28.54
68329;BME280;55182;56.864;60.554;2023-04-09T06:33:15;75620.41;;;-143.60;28.51
68329;BME280;55182;56.864;60.554;2023-04-09T06:35:41;75630.44;;;-143.60;28.28
68329;BME280;55182;56.864;60.554;2023-04-09T06:38:06;75608.34;;;-143.60;28.07
68329;BME280;55182;56.864;60.554;2023-04-09T06:40:32;75608.34;;;-143.60;28.52
68329;BME280;55182;56.864;60.554;2023-04-09T06:42:57;75606.34;;;-143.60;28.48
68329;BME280;55182;56.864;60.554;2023-04-09T06:45:28;75600.31;;;-143.60;28.18
68329;BME280;55182;56.864;60.554;2023-04-09T06:47:57;75582.22;;;-143.60;28.26
68329;BME280;55182;56.864;60.554;2023-04-09T06:50:23;75560.13;;;-143.60;28.44
68329;BME280;55182;56.864;60.554;2023-04-09T06:52:51;75534.00;;;-143.60;28.32
68329;BME280;55182;56.864;60.554;2023-04-09T06:55:17;75542.03;;;-143.60;27.83
68329;BME280;55182;56.864;60.554;2023-04-09T06:57:42;75529.97;;;-143.60;27.91
68329;BME280;55182;56.864;60.554;2023-04-09T07:00:08;75532.00;;;-143.60;28.02
68329;BME280;55182;56.864;60.554;2023-04-09T07:02:36;75511.91;;;-143.60;28.16
68329;BME280;55182;56.864;60.554;2023-04-09T07:05:02;75503.88;;;-143.60;27.82
68329;BME280;55182;56.864;60.554;2023-04-09T07:07:27;75495.81;;;-143.60;27.82
68329;BME280;55182;56.864;60.554;2023-04-09T07:09:53;75473.72;;;-143.60;27.74
68329;BME280;55182;56.864;60.554;2023-04-09T07:12:25;75467.69;;;-143.60;27.47
68329;BME280;55182;56.864;60.554;2023-04-09T07:14:51;75453.63;;;-143.60;27.55
68329;BME280;55182;56.864;60.554;2023-04-09T07:17:17;75445.59;;;-143.60;27.79
68329;BME280;55182;56.864;60.554;2023-04-09T07:19:42;75427.50;;;-143.60;27.57
68329;BME280;55182;56.864;60.554;2023-04-09T07:22:08;75429.53;;;-143.60;27.27
68329;BME280;55182;56.864;60.554;2023-04-09T07:24:33;75417.47;;;-143.60;27.15
68329;BME280;55182;56.864;60.554;2023-04-09T07:27:02;75439.56;;;-143.60;27.42
68329;BME280;55182;56.864;60.554;2023-04-09T07:29:27;75423.50;;;-143.60;27.25
68329;BME280;55182;56.864;60.554;2023-04-09T07:31:53;75411.44;;;-143.60;27.41
68329;BME280;55182;56.864;60.554;2023-04-09T07:34:19;75391.34;;;-143.60;27.13
68329;BME280;55182;56.864;60.554;2023-04-09T07:36:44;75383.31;;;-143.60;27.09
68329;BME280;55182;56.864;60.554;2023-04-09T07:39:10;75385.31;;;-143.60;27.23
68329;BME280;55182;56.864;60.554;2023-04-09T07:41:35;75367.25;;;-143.60;27.27
68329;BME280;55182;56.864;60.554;2023-04-09T07:44:01;75331.06;;;-143.60;26.95
68329;BME280;55182;56.864;60.554;2023-04-09T07:46:26;75337.09;;;-143.60;26.88
68329;BME280;55182;56.864;60.554;2023-04-09T07:48:52;75335.09;;;-143.60;27.40
68329;BME280;55182;56.864;60.554;2023-04-09T07:51:17;75331.06;;;-143.60;27.00
68329;BME280;55182;56.864;60.554;2023-04-09T07:53:43;75319.03;;;-143.60;26.92
68329;BME280;55182;56.864;60.554;2023-04-09T07:56:08;75306.97;;;-143.60;27.30
68329;BME280;55182;56.864;60.554;2023-04-09T07:58:35;75294.91;;;-143.60;27.14
68329;BME280;55182;56.864;60.554;2023-04-09T08:01:00;75282.88;;;-143.60;26.93
68329;BME280;55182;56.864;60.554;2023-04-09T08:03:26;75266.78;;;-143.60;27.12
68329;BME280;55182;56.864;60.554;2023-04-09T08:05:52;75262.78;;;-143.60;26.97
68329;BME280;55182;56.864;60.554;2023-04-09T08:08:17;75256.75;;;-143.60;27.24
68329;BME280;55182;56.864;60.554;2023-04-09T08:10:43;75238.66;;;-143.60;27.23
68329;BME280;55182;56.864;60.554;2023-04-09T08:13:08;75230.63;;;-143.60;27.29
68329;BME280;55182;56.864;60.554;2023-04-09T08:15:34;75226.59;;;-143.60;27.23
68329;BME280;55182;56.864;60.554;2023-04-09T08:17:59;75210.53;;;-143.60;27.14
68329;BME280;55182;56.864;60.554;2023-04-09T08:20:25;75214.56;;;-143.60;26.88
68329;BME280;55182;56.864;60.554;2023-04-09T08:22:50;75210.53;;;-143.60;27.30
68329;BME280;55182;56.864;60.554;2023-04-09T08:25:16;75218.56;;;-143.60;27.14
68329;BME280;55182;56.864;60.554;2023-04-09T08:27:41;75184.41;;;-143.60;27.72
68329;BME280;55182;56.864;60.554;2023-04-09T08:30:07;75186.44;;;-143.60;27.13
68329;BME280;55182;56.864;60.554;2023-04-09T08:32:33;75174.38;;;-143.60;27.46
68329;BME280;55182;56.864;60.554;2023-04-09T08:34:58;75164.34;;;-143.60;27.03
68329;BME280;55182;56.864;60.554;2023-04-09T08:37:24;75162.31;;;-143.60;27.08
68329;BME280;55182;56.864;60.554;2023-04-09T08:39:49;75146.25;;;-143.60;27.03
68329;BME280;55182;56.864;60.554;2023-04-09T08:42:14;75130.19;;;-143.60;26.97
68329;BME280;55182;56.864;60.554;2023-04-09T08:44:40;75118.13;;;-143.60;26.78
68329;BME280;55182;56.864;60.554;2023-04-09T08:47:08;75110.09;;;-143.60;26.94
68329;BME280;55182;56.864;60.554;2023-04-09T08:49:34;75094.00;;;-143.60;27.25
68329;BME280;55182;56.864;60.554;2023-04-09T08:52:00;75085.97;;;-143.60;26.37
68329;BME280;55182;56.864;60.554;2023-04-09T08:54:25;75083.97;;;-143.60;26.81
68329;BME280;55182;56.864;60.554;2023-04-09T08:56:51;75075.94;;;-143.60;26.91
68329;BME280;55182;56.864;60.554;2023-04-09T08:59:16;75069.91;;;-143.60;26.81
68329;BME280;55182;56.864;60.554;2023-04-09T09:01:42;75059.88;;;-143.60;26.92
68329;BME280;55182;56.864;60.554;2023-04-09T09:04:08;75061.88;;;-143.60;26.84
68329;BME280;55182;56.864;60.554;2023-04-09T09:06:37;75045.81;;;-143.60;26.97
68329;BME280;55182;56.864;60.554;2023-04-09T09:09:10;75043.78;;;-143.60;27.03
68329;BME280;55182;56.864;60.554;2023-04-09T09:11:36;75025.72;;;-143.60;27.35
68329;BME280;55182;56.864;60.554;2023-04-09T09:14:05;75001.59;;;-143.60;27.25
68329;BME280;55182;56.864;60.554;2023-04-09T09:16:32;74985.53;;;-143.60;27.26
68329;BME280;55182;56.864;60.554;2023-04-09T09:18:58;74997.59;;;-143.60;27.38
68329;BME280;55182;56.864;60.554;2023-04-09T09:21:23;74987.53;;;-143.60;27.36
68329;BME280;55182;56.864;60.554;2023-04-09T09:23:49;74989.56;;;-143.60;27.40
68329;BME280;55182;56.864;60.554;2023-04-09T09:26:15;74981.50;;;-143.60;27.76
68329;BME280;55182;56.864;60.554;2023-04-09T09:28:41;74963.44;;;-143.60;27.91
68329;BME280;55182;56.864;60.554;2023-04-09T09:31:07;74935.31;;;-143.60;27.94
68329;BME280;55182;56.864;60.554;2023-04-09T09:33:33;74917.22;;;-143.60;27.52
68329;BME280;55182;56.864;60.554;2023-04-09T09:35:58;74893.13;;;-143.60;27.50
68329;BME280;55182;56.864;60.554;2023-04-09T09:38:24;74877.06;;;-143.60;27.68
68329;BME280;55182;56.864;60.554;2023-04-09T09:40:50;74842.91;;;-143.60;27.77
68329;BME280;55182;56.864;60.554;2023-04-09T09:43:15;74816.78;;;-143.60;27.34
68329;BME280;55182;56.864;60.554;2023-04-09T09:45:41;74800.72;;;-143.60;26.77
68329;BME280;55182;56.864;60.554;2023-04-09T09:48:08;74790.69;;;-143.60;26.90
68329;BME280;55182;56.864;60.554;2023-04-09T09:50:34;74764.56;;;-143.60;26.78
68329;BME280;55182;56.864;60.554;2023-04-09T09:53:05;74740.47;;;-143.60;26.98
68329;BME280;55182;56.864;60.554;2023-04-09T09:55:32;74720.38;;;-143.60;27.48
68329;BME280;55182;56.864;60.554;2023-04-09T09:58:01;74736.44;;;-143.60;26.78
68329;BME280;55182;56.864;60.554;2023-04-09T10:00:27;74788.66;;;-143.60;26.95
68329;BME280;55182;56.864;60.554;2023-04-09T10:02:56;74812.78;;;-143.60;27.37
68329;BME280;55182;56.864;60.554;2023-04-09T10:05:23;74844.91;;;-143.60;27.52
68329;BME280;55182;56.864;60.554;2023-04-09T10:07:48;74852.94;;;-143.60;28.18
68329;BME280;55182;56.864;60.554;2023-04-09T10:10:14;74846.91;;;-143.60;27.87
68329;BME280;55182;56.864;60.554;2023-04-09T10:12:39;74852.94;;;-143.60;28.00
68329;BME280;55182;56.864;60.554;2023-04-09T10:15:05;74865.00;;;-143.60;27.99
68329;BME280;55182;56.864;60.554;2023-04-09T10:17:31;74869.03;;;-143.60;28.40
68329;BME280;55182;56.864;60.554;2023-04-09T10:22:37;74852.94;;;-143.60;28.27
68329;BME280;55182;56.864;60.554;2023-04-09T10:25:03;74865.00;;;-143.60;28.07
68329;BME280;55182;56.864;60.554;2023-04-09T10:27:30;74867.00;;;-143.60;27.75
68329;BME280;55182;56.864;60.554;2023-04-09T10:29:55;74860.97;;;-143.60;28.04
68329;BME280;55182;56.864;60.554;2023-04-09T10:32:21;74852.94;;;-143.60;27.86
68329;BME280;55182;56.864;60.554;2023-04-09T10:34:48;74838.88;;;-143.60;27.78
68329;BME280;55182;56.864;60.554;2023-04-09T10:37:14;74836.88;;;-143.60;27.72
68329;BME280;55182;56.864;60.554;2023-04-09T10:39:44;74832.88;;;-143.60;28.54
68329;BME280;55182;56.864;60.554;2023-04-09T10:42:11;74832.88;;;-143.60;27.27
68329;BME280;55182;56.864;60.554;2023-04-09T10:44:38;74822.81;;;-143.60;27.52
68329;BME280;55182;56.864;60.554;2023-04-09T10:47:03;74816.78;;;-143.60;27.64
68329;BME280;55182;56.864;60.554;2023-04-09T10:49:34;74808.75;;;-143.60;27.40
68329;BME280;55182;56.864;60.554;2023-04-09T10:52:04;74808.75;;;-143.60;27.26
68329;BME280;55182;56.864;60.554;2023-04-09T10:59:40;74788.66;;;-143.60;26.88
68329;BME280;55182;56.864;60.554;2023-04-09T11:02:07;74780.63;;;-143.60;27.08
68329;BME280;55182;56.864;60.554;2023-04-09T11:07:07;74762.56;;;-143.60;27.54
68329;BME280;55182;56.864;60.554;2023-04-09T11:09:33;74756.53;;;-143.60;27.41
68329;BME280;55182;56.864;60.554;2023-04-09T11:11:59;74744.47;;;-143.60;26.97
68329;BME280;55182;56.864;60.554;2023-04-09T11:14:24;74742.47;;;-143.60;27.17
68329;BME280;55182;56.864;60.554;2023-04-09T11:16:50;74736.44;;;-143.60;27.12
68329;BME280;55182;56.864;60.554;2023-04-09T11:19:15;74732.41;;;-143.60;27.11
68329;BME280;55182;56.864;60.554;2023-04-09T11:21:41;74722.38;;;-143.60;26.90
68329;BME280;55182;56.864;60.554;2023-04-09T11:24:06;74708.31;;;-143.60;26.95
68329;BME280;55182;56.864;60.554;2023-04-09T11:26:35;74704.28;;;-143.60;27.13
68329;BME280;55182;56.864;60.554;2023-04-09T11:29:04;74700.28;;;-143.60;27.07
68329;BME280;55182;56.864;60.554;2023-04-09T11:31:30;74698.28;;;-143.60;27.30
68329;BME280;55182;56.864;60.554;2023-04-09T11:33:55;74700.28;;;-143.60;27.22
68329;BME280;55182;56.864;60.554;2023-04-09T11:36:21;74688.22;;;-143.60;27.17
68329;BME280;55182;56.864;60.554;2023-04-09T11:38:47;74676.19;;;-143.60;27.12
68329;BME280;55182;56.864;60.554;2023-04-09T11:41:12;74676.19;;;-143.60;27.39
68329;BME280;55182;56.864;60.554;2023-04-09T11:43:38;74674.16;;;-143.60;26.84
68329;BME280;55182;56.864;60.554;2023-04-09T11:46:04;74676.19;;;-143.60;27.52
68329;BME280;55182;56.864;60.554;2023-04-09T11:48:30;74676.19;;;-143.60;27.20
68329;BME280;55182;56.864;60.554;2023-04-09T11:50:56;74676.19;;;-143.60;27.06
68329;BME280;55182;56.864;60.554;2023-04-09T11:53:22;74668.13;;;-143.60;27.07
68329;BME280;55182;56.864;60.554;2023-04-09T11:55:51;74660.09;;;-143.60;26.98
68329;BME280;55182;56.864;60.554;2023-04-09T11:58:20;74656.09;;;-143.60;26.64
68329;BME280;55182;56.864;60.554;2023-04-09T12:00:46;74648.06;;;-143.60;26.59
68329;BME280;55182;56.864;60.554;2023-04-09T12:03:12;74644.03;;;-143.60;27.11
68329;BME280;55182;56.864;60.554;2023-04-09T12:05:37;74623.94;;;-143.60;26.42
68329;BME280;55182;56.864;60.554;2023-04-09T12:08:03;74599.84;;;-143.60;26.21
68329;BME280;55182;56.864;60.554;2023-04-09T12:10:31;74507.44;;;-143.60;25.49
68329;BME280;55182;56.864;60.554;2023-04-09T12:13:15;74380.91;;;-143.60;24.77
68329;BME280;55182;56.864;60.554;2023-04-09T12:15:41;74244.31;;;-143.60;24.28
68329;BME280;55182;56.864;60.554;2023-04-09T12:18:07;74174.03;;;-143.60;23.46
68329;BME280;55182;56.864;60.554;2023-04-09T12:20:34;74121.81;;;-143.60;23.12
68329;BME280;55182;56.864;60.554;2023-04-09T12:23:00;74079.63;;;-143.60;22.99
68329;BME280;55182;56.864;60.554;2023-04-09T12:25:26;74025.41;;;-143.60;22.68
68329;BME280;55182;56.864;60.554;2023-04-09T12:27:52;73985.22;;;-143.60;22.55
68329;BME280;55182;56.864;60.554;2023-04-09T12:30:18;73969.16;;;-143.60;22.27
68329;BME280;55182;56.864;60.554;2023-04-09T12:32:43;73943.06;;;-143.60;21.75
68329;BME280;55182;56.864;60.554;2023-04-09T12:35:09;73973.19;;;-143.60;21.87
68329;BME280;55182;56.864;60.554;2023-04-09T12:37:34;73965.16;;;-143.60;21.64
68329;BME280;55182;56.864;60.554;2023-04-09T12:40:00;73965.16;;;-143.60;21.60
68329;BME280;55182;56.864;60.554;2023-04-09T12:42:25;73953.09;;;-143.60;21.69
68329;BME280;55182;56.864;60.554;2023-04-09T12:44:51;73939.03;;;-143.60;21.77
68329;BME280;55182;56.864;60.554;2023-04-09T12:47:16;73937.03;;;-143.60;21.73